Time;durP1;ratioP1;P1;durP2;ratioP2;P2;SDS_P1;SDS_P2;PMS_P1;PMS_P2;Temp;Humidity;BMP_temperature;BMP_pressure;BME280_temperature;BME280_humidity;BME280_pressure;Samples;Min_cycle;Max_cycle;Signal;HPM_P1;HPM_P2
2023/03/05 00:01:17;;;;;;;3.20;2.03;;;6.50;99.90;;;6.31;nan;101066.25;4974771;28;20644;-64
2023/03/05 00:03:45;;;;;;;3.35;3.00;;;6.40;99.90;;;6.32;nan;101062.75;4972379;28;20587;-64
2023/03/05 00:06:12;;;;;;;4.97;2.55;;;6.50;99.90;;;6.28;nan;101057.72;4973631;28;20592;-65
2023/03/05 00:08:39;;;;;;;2.55;2.28;;;6.40;99.90;;;6.28;nan;101062.06;4971930;28;20204;-67
2023/03/05 00:11:10;;;;;;;2.70;2.50;;;6.40;99.90;;;6.28;nan;101061.22;4973623;28;20226;-64
2023/03/05 00:13:38;;;;;;;2.80;2.50;;;6.40;99.90;;;6.32;nan;101067.94;4973475;28;20224;-64
2023/03/05 00:16:08;;;;;;;2.03;1.90;;;6.40;99.90;;;6.31;nan;101061.06;4957766;28;20697;-64
2023/03/05 00:18:37;;;;;;;1.83;1.73;;;6.40;99.90;;;6.24;nan;101065.69;4970852;28;20584;-64
2023/03/05 00:21:16;;;;;;;1.95;1.63;;;6.40;99.90;;;6.25;nan;101057.88;4962951;28;20670;-66
2023/03/05 00:23:43;;;;;;;5.15;3.50;;;6.40;99.90;;;6.24;nan;101058.78;4955068;28;20300;-63
2023/03/05 00:26:10;;;;;;;3.13;2.80;;;6.30;99.90;;;6.23;nan;101062.28;4971951;28;20203;-64
2023/03/05 00:28:37;;;;;;;2.20;1.85;;;6.30;99.90;;;6.22;nan;101052.81;4972145;28;20214;-63
2023/03/05 00:31:04;;;;;;;2.22;1.77;;;6.30;99.90;;;6.22;nan;101058.00;4972229;28;20660;-67
2023/03/05 00:33:31;;;;;;;2.92;2.20;;;6.30;99.90;;;6.24;nan;101053.59;4971416;28;20231;-63
2023/03/05 00:36:01;;;;;;;2.30;2.13;;;6.40;99.90;;;6.24;nan;101040.63;4971805;28;20204;-67
2023/03/05 00:38:28;;;;;;;2.70;2.28;;;6.40;99.90;;;6.24;nan;101050.16;4971604;28;20230;-64
2023/03/05 00:40:55;;;;;;;2.95;2.10;;;6.40;99.90;;;6.19;nan;101053.00;4956055;28;20202;-66
2023/03/05 00:43:22;;;;;;;3.00;2.05;;;6.30;99.90;;;6.17;nan;101044.44;4971987;28;20234;-66
2023/03/05 00:45:49;;;;;;;1.90;1.80;;;6.30;99.90;;;6.17;nan;101044.44;4972500;28;20208;-65
2023/03/05 00:48:16;;;;;;;2.35;2.15;;;6.30;99.90;;;6.13;nan;101042.88;4971875;28;20210;-65
2023/03/05 00:50:42;;;;;;;2.85;2.38;;;6.20;99.90;;;6.13;nan;101040.28;4964182;28;20205;-66
2023/03/05 00:53:09;;;;;;;2.60;2.40;;;6.20;99.90;;;6.15;nan;101040.25;4961341;28;20232;-66
2023/03/05 00:55:36;;;;;;;2.50;2.30;;;6.20;99.90;;;6.17;nan;101035.81;4972794;28;20212;-67
2023/03/05 00:58:03;;;;;;;3.55;2.65;;;6.30;99.90;;;6.16;nan;101032.38;4969801;28;20200;-65
2023/03/05 01:00:30;;;;;;;1.90;1.80;;;6.30;99.90;;;6.17;nan;101028.91;4972378;28;20877;-67
2023/03/05 01:02:57;;;;;;;3.10;2.42;;;6.30;99.90;;;6.16;nan;101022.03;4973357;28;20232;-65
2023/03/05 01:05:24;;;;;;;3.55;2.80;;;6.30;99.90;;;6.17;nan;101022.88;4973785;28;20269;-65
2023/03/05 01:07:52;;;;;;;3.35;2.63;;;6.30;99.90;;;6.18;nan;101021.94;4973111;28;20636;-63
2023/03/05 01:10:22;;;;;;;3.40;3.08;;;6.30;99.90;;;6.17;nan;101021.13;4970678;28;20212;-64
2023/03/05 01:12:49;;;;;;;2.70;2.50;;;6.30;99.90;;;6.18;nan;101019.34;4966315;28;20263;-67
2023/03/05 01:15:16;;;;;;;3.88;2.95;;;6.30;99.90;;;6.17;nan;101017.69;4970859;28;20669;-66
2023/03/05 01:17:43;;;;;;;2.90;2.38;;;6.30;99.90;;;6.17;nan;101018.53;4971633;28;20266;-66
2023/03/05 01:20:13;;;;;;;3.70;3.30;;;6.30;99.90;;;6.16;nan;101010.81;4970850;28;20204;-65
2023/03/05 01:22:40;;;;;;;2.75;2.55;;;6.30;99.90;;;6.16;nan;101016.00;4972115;28;20289;-66
2023/03/05 01:25:08;;;;;;;2.67;2.45;;;6.30;99.90;;;6.18;nan;101009.84;4971365;28;20212;-66
2023/03/05 01:27:35;;;;;;;2.47;2.28;;;6.30;99.90;;;6.16;nan;101006.47;4971973;28;20200;-65
2023/03/05 01:30:04;;;;;;;3.20;2.53;;;6.30;99.90;;;6.17;nan;101004.72;4969917;28;20209;-66
2023/03/05 01:32:31;;;;;;;4.03;2.55;;;6.30;99.90;;;6.17;nan;101007.31;4966907;28;20239;-65
2023/03/05 01:35:02;;;;;;;4.00;2.20;;;6.30;99.90;;;6.17;nan;101002.16;4968844;28;20204;-66
2023/03/05 01:37:29;;;;;;;2.00;1.85;;;6.30;99.90;;;6.16;nan;101001.28;4955387;28;20215;-66
2023/03/05 01:39:56;;;;;;;2.88;2.58;;;6.30;99.90;;;6.14;nan;100997.94;4971511;28;20212;-65
2023/03/05 01:42:23;;;;;;;1.95;1.85;;;6.30;99.90;;;6.14;nan;100991.91;4970420;28;20984;-66
2023/03/05 01:45:10;;;;;;;3.22;2.63;;;6.30;99.90;;;6.12;nan;100994.59;4964484;28;20208;-65
2023/03/05 01:47:38;;;;;;;2.35;2.13;;;6.30;99.90;;;6.11;nan;100990.31;4966927;28;20208;-66
2023/03/05 01:50:09;;;;;;;3.30;2.92;;;6.20;99.90;;;6.09;nan;100984.34;4970999;28;20809;-65
2023/03/05 01:52:40;;;;;;;3.42;2.55;;;6.30;99.90;;;6.10;nan;100990.38;4959483;28;20224;-65
2023/03/05 01:55:13;;;;;;;2.47;2.30;;;6.20;99.90;;;6.08;nan;100987.88;4954015;28;20242;-65
2023/03/05 01:58:07;;;;;;;2.20;2.03;;;6.20;99.90;;;6.08;nan;100980.09;4969465;28;20200;-67
2023/03/05 02:00:40;;;;;;;2.50;2.30;;;6.30;99.90;;;6.10;nan;100982.63;4970617;28;20208;-65
2023/03/05 02:03:10;;;;;;;3.35;2.38;;;6.20;99.90;;;6.11;nan;100982.53;4954312;28;20232;-65
2023/03/05 02:05:40;;;;;;;5.22;2.60;;;6.30;99.90;;;6.10;nan;100974.84;4969852;28;20208;-66
2023/03/05 02:08:12;;;;;;;2.88;2.65;;;6.30;99.90;;;6.06;nan;100979.34;4972616;28;20212;-65
2023/03/05 02:10:46;;;;;;;3.20;2.40;;;6.20;99.90;;;6.02;nan;100977.81;4971714;28;20232;-65
2023/03/05 02:13:24;;;;;;;2.88;2.67;;;6.20;99.90;;;6.00;nan;100974.47;4970792;28;20233;-65
2023/03/05 02:15:54;;;;;;;2.20;1.98;;;6.10;99.90;;;6.00;nan;100979.63;4958272;28;20273;-65
2023/03/05 02:18:21;;;;;;;4.25;2.65;;;6.10;99.90;;;6.01;nan;100975.28;4957255;28;20200;-66
2023/03/05 02:20:55;;;;;;;2.88;2.63;;;6.10;99.90;;;6.02;nan;100975.22;4971528;28;20211;-67
2023/03/05 02:23:27;;;;;;;3.97;2.95;;;6.20;99.90;;;6.00;nan;100969.28;4972163;28;20234;-64
2023/03/05 02:25:54;;;;;;;3.67;2.30;;;6.10;99.90;;;6.04;nan;100967.38;4971601;28;20207;-65
2023/03/05 02:28:35;;;;;;;3.42;3.15;;;6.20;99.90;;;6.03;nan;100966.53;4971190;28;20226;-64
2023/03/05 02:31:19;;;;;;;3.15;2.75;;;6.10;99.90;;;6.00;nan;100965.84;4936455;29;20216;-65
2023/03/05 02:33:47;;;;;;;3.65;3.25;;;6.10;99.90;;;5.99;nan;100962.41;4953085;28;20232;-65
2023/03/05 02:36:14;;;;;;;3.13;2.73;;;6.10;99.90;;;5.98;nan;100957.31;4967036;28;20216;-66
2023/03/05 02:38:44;;;;;;;5.40;3.75;;;6.10;99.90;;;5.98;nan;100959.91;4970929;28;20627;-66
2023/03/05 02:41:12;;;;;;;5.03;3.45;;;6.10;99.90;;;5.95;nan;100955.69;4952755;28;20212;-67
2023/03/05 02:43:39;;;;;;;3.22;2.92;;;6.10;99.90;;;5.96;nan;100949.59;4945678;28;20239;-66
2023/03/05 02:46:07;;;;;;;4.20;3.40;;;6.10;99.90;;;5.97;nan;100948.69;4970521;28;20212;-65
2023/03/05 02:48:34;;;;;;;4.20;2.88;;;6.10;99.90;;;6.00;nan;100951.16;4971010;28;20661;-64
2023/03/05 02:51:03;;;;;;;4.63;2.95;;;6.10;99.90;;;6.00;nan;100945.13;4970341;28;20204;-66
2023/03/05 02:53:30;;;;;;;5.07;3.60;;;6.10;99.90;;;6.02;nan;100949.31;4968111;28;20232;-64
2023/03/05 02:55:57;;;;;;;4.78;3.72;;;6.10;99.90;;;6.03;nan;100945.81;4971243;28;20207;-67
2023/03/05 02:58:24;;;;;;;5.60;3.13;;;6.20;99.90;;;6.02;nan;100938.97;4953692;28;20278;-66
2023/03/05 03:00:51;;;;;;;6.28;4.18;;;6.20;99.90;;;6.03;nan;100932.84;4972514;28;20278;-63
2023/03/05 03:03:18;;;;;;;6.70;4.03;;;6.20;99.90;;;6.03;nan;100934.59;4971477;28;20235;-66
2023/03/05 03:05:45;;;;;;;5.70;4.20;;;6.20;99.90;;;6.03;nan;100932.00;4972194;28;20200;-66
2023/03/05 03:08:12;;;;;;;7.22;4.05;;;6.20;99.90;;;6.03;nan;100925.06;4971062;28;20286;-66
2023/03/05 03:10:39;;;;;;;6.55;3.80;;;6.20;99.90;;;6.02;nan;100928.59;4970418;28;20199;-65
2023/03/05 03:13:06;;;;;;;4.82;3.90;;;6.20;99.90;;;6.01;nan;100929.50;4970142;28;20238;-66
2023/03/05 03:15:33;;;;;;;7.30;4.35;;;6.10;99.90;;;5.99;nan;100922.72;4970457;28;20230;-66
2023/03/05 03:18:00;;;;;;;8.75;4.95;;;6.10;99.90;;;5.99;nan;100925.28;4970168;28;20270;-68
2023/03/05 03:20:27;;;;;;;5.88;4.20;;;6.10;99.90;;;5.99;nan;100918.38;4970482;28;20204;-66
2023/03/05 03:22:54;;;;;;;5.28;3.92;;;6.20;99.90;;;6.01;nan;100919.13;4971783;28;20232;-64
2023/03/05 03:25:22;;;;;;;4.22;3.55;;;6.20;99.90;;;6.03;nan;100913.88;4973625;28;20211;-64
2023/03/05 03:27:48;;;;;;;6.70;4.25;;;6.20;99.90;;;6.04;nan;100913.81;4973478;28;20223;-61
2023/03/05 03:30:16;;;;;;;5.00;3.17;;;6.20;99.90;;;6.06;nan;100917.16;4975122;28;20218;-63
2023/03/05 03:32:43;;;;;;;3.22;2.92;;;6.20;99.90;;;6.06;nan;100904.22;4972415;28;20231;-66
2023/03/05 03:35:11;;;;;;;6.05;3.28;;;6.20;99.90;;;6.06;nan;100909.41;4972927;28;20215;-64
2023/03/05 03:37:39;;;;;;;9.30;3.97;;;6.20;99.90;;;6.05;nan;100902.53;4972488;28;20231;-65
2023/03/05 03:40:07;;;;;;;4.70;3.47;;;6.20;99.90;;;6.07;nan;100898.09;4970177;28;20208;-63
2023/03/05 03:42:34;;;;;;;3.95;3.17;;;6.20;99.90;;;6.07;nan;100892.94;4973219;28;20232;-66
2023/03/05 03:45:01;;;;;;;4.22;3.25;;;6.20;99.90;;;6.08;nan;100898.97;4966896;28;20213;-64
2023/03/05 03:47:29;;;;;;;5.13;3.95;;;6.20;99.90;;;6.06;nan;100893.84;4972476;28;20208;-66
2023/03/05 03:49:57;;;;;;;5.32;4.00;;;6.20;99.90;;;6.07;nan;100898.09;4956136;28;20211;-64
2023/03/05 03:52:25;;;;;;;4.28;3.70;;;6.20;99.90;;;6.07;nan;100890.34;4974349;28;20281;-67
2023/03/05 03:54:54;;;;;;;5.57;3.67;;;6.20;99.90;;;6.08;nan;100889.44;4972707;28;20231;-66
2023/03/05 03:57:21;;;;;;;2.90;2.70;;;6.20;99.90;;;6.06;nan;100885.25;4952341;28;20635;-65
2023/03/05 03:59:49;;;;;;;3.55;3.10;;;6.20;99.90;;;6.04;nan;100890.50;4974019;28;20627;-66
2023/03/05 04:02:16;;;;;;;5.15;3.50;;;6.20;99.90;;;6.03;nan;100881.03;4974372;28;20234;-66
2023/03/05 04:04:43;;;;;;;4.88;3.40;;;6.20;99.90;;;6.01;nan;100877.69;4961136;28;20204;-65
2023/03/05 04:07:10;;;;;;;7.10;5.10;;;6.20;99.90;;;6.00;nan;100878.63;4959031;28;20261;-67
2023/03/05 04:09:37;;;;;;;4.10;3.60;;;6.20;99.90;;;6.02;nan;100878.53;4973522;28;20265;-66
2023/03/05 04:12:05;;;;;;;4.50;4.03;;;6.10;99.90;;;6.01;nan;100867.34;4967819;28;20275;-65
2023/03/05 04:14:32;;;;;;;5.45;3.45;;;6.10;99.90;;;6.05;nan;100874.03;4968270;28;20197;-65
2023/03/05 04:16:59;;;;;;;6.07;3.08;;;6.20;99.90;;;6.04;nan;100872.38;4953992;28;20577;-67
2023/03/05 04:19:27;;;;;;;5.57;3.25;;;6.20;99.90;;;6.03;nan;100865.50;4969371;28;20262;-65
2023/03/05 04:21:54;;;;;;;6.22;3.63;;;6.20;99.90;;;6.02;nan;100874.19;4968382;28;20196;-65
2023/03/05 04:24:21;;;;;;;5.20;2.55;;;6.20;99.90;;;6.00;nan;100873.44;4971512;28;20689;-66
2023/03/05 04:26:48;;;;;;;5.70;3.65;;;6.20;99.90;;;5.96;nan;100864.13;4971743;28;20211;-65
2023/03/05 04:29:15;;;;;;;5.50;2.63;;;6.10;99.90;;;5.94;nan;100865.94;4969143;28;20204;-65
2023/03/05 04:31:41;;;;;;;4.55;3.35;;;6.10;99.90;;;5.90;nan;100872.19;4962309;28;20204;-65
2023/03/05 04:34:08;;;;;;;4.80;3.20;;;6.00;99.90;;;5.85;nan;100868.16;4973149;28;20242;-65
2023/03/05 04:36:35;;;;;;;4.35;2.53;;;6.00;99.90;;;5.80;nan;100870.94;4973511;28;20681;-65
2023/03/05 04:39:03;;;;;;;3.42;3.03;;;5.90;99.90;;;5.81;nan;100871.78;4973482;28;20242;-65
2023/03/05 04:41:30;;;;;;;5.18;3.47;;;6.00;99.90;;;5.81;nan;100870.03;4971430;28;20214;-65
2023/03/05 04:43:57;;;;;;;7.53;4.85;;;5.90;99.90;;;5.78;nan;100861.56;5001420;22;20231;-65
2023/03/05 04:46:24;;;;;;;4.80;3.10;;;5.90;99.90;;;5.76;nan;100866.81;4974467;28;20216;-65
2023/03/05 04:48:52;;;;;;;6.13;3.55;;;5.90;99.90;;;5.72;nan;100870.47;4970965;28;20669;-67
2023/03/05 04:51:18;;;;;;;5.32;2.65;;;5.80;99.90;;;5.71;nan;100866.19;4959125;28;20210;-65
2023/03/05 04:53:45;;;;;;;3.75;2.60;;;5.80;99.90;;;5.70;nan;100864.53;4980336;28;20236;-67
2023/03/05 04:56:13;;;;;;;7.50;4.50;;;5.80;99.90;;;5.71;nan;100868.78;4973107;28;20211;-67
2023/03/05 04:58:40;;;;;;;4.90;3.50;;;5.80;99.90;;;5.68;nan;100857.75;4975798;28;20212;-66
2023/03/05 05:01:07;;;;;;;3.45;2.97;;;5.80;99.90;;;5.61;nan;100852.03;4992997;28;20246;-65
2023/03/05 05:03:34;;;;;;;3.60;2.72;;;5.80;99.90;;;5.62;nan;100853.72;4973474;28;20232;-66
2023/03/05 05:06:01;;;;;;;3.58;2.65;;;5.70;99.90;;;5.63;nan;100855.38;4969522;28;20216;-64
2023/03/05 05:08:28;;;;;;;3.13;2.88;;;5.70;99.90;;;5.59;nan;100851.28;4971135;28;20199;-67
2023/03/05 05:11:04;;;;;;;5.15;3.50;;;5.70;99.90;;;5.62;nan;100845.94;4967046;28;20263;-66
2023/03/05 05:13:32;;;;;;;5.00;3.53;;;5.70;99.90;;;5.63;nan;100846.78;4952849;28;20239;-66
2023/03/05 05:15:59;;;;;;;3.13;2.78;;;5.80;99.90;;;5.62;nan;100853.72;4972184;28;20210;-66
2023/03/05 05:18:26;;;;;;;5.90;3.50;;;5.70;99.90;;;5.63;nan;100852.78;4970631;28;20214;-66
2023/03/05 05:20:53;;;;;;;5.53;2.63;;;5.80;99.90;;;5.64;nan;100849.31;4991632;28;20211;-65
2023/03/05 05:23:20;;;;;;;4.47;3.63;;;5.80;99.90;;;5.65;nan;100852.72;4973905;28;20239;-66
2023/03/05 05:25:56;;;;;;;4.28;3.28;;;5.80;99.90;;;5.67;nan;100853.47;4972260;28;20290;-66
2023/03/05 05:28:24;;;;;;;3.58;2.55;;;5.80;99.90;;;5.68;nan;100845.66;4953522;28;20207;-65
2023/03/05 05:30:51;;;;;;;8.52;4.38;;;5.80;99.90;;;5.68;nan;100856.00;4938009;28;20204;-65
2023/03/05 05:33:18;;;;;;;6.50;4.50;;;5.80;99.90;;;5.69;nan;100855.09;4971130;28;20314;-65
2023/03/05 05:35:45;;;;;;;9.25;4.85;;;5.80;99.90;;;5.66;nan;100855.25;4955472;28;20204;-66
2023/03/05 05:38:12;;;;;;;5.63;3.33;;;5.80;99.90;;;5.65;nan;100847.53;4972019;28;20196;-66
2023/03/05 05:40:39;;;;;;;5.55;3.10;;;5.80;99.90;;;5.67;nan;100853.47;4972346;28;20212;-66
2023/03/05 05:43:06;;;;;;;2.60;1.25;;;5.80;99.90;;;5.67;nan;100851.72;4978039;28;20786;-66
2023/03/05 05:45:33;;;;;;;4.75;3.78;;;5.80;99.90;;;5.68;nan;100852.56;4983957;28;20286;-66
2023/03/05 05:48:00;;;;;;;7.00;4.45;;;5.80;99.90;;;5.68;nan;100850.84;4982167;28;20215;-69
2023/03/05 05:50:27;;;;;;;6.63;4.18;;;5.80;99.90;;;5.69;nan;100851.66;4973884;28;20225;-67
2023/03/05 05:52:54;;;;;;;6.85;5.00;;;5.80;99.90;;;5.69;nan;100844.72;4971710;28;20232;-65
2023/03/05 05:55:21;;;;;;;5.53;3.30;;;5.80;99.90;;;5.70;nan;100845.56;4969873;28;20236;-65
2023/03/05 05:57:48;;;;;;;9.43;5.05;;;5.90;99.90;;;5.70;nan;100842.97;4979128;28;20223;-64
2023/03/05 06:00:16;;;;;;;11.52;5.32;;;5.80;99.90;;;5.70;nan;100842.97;4971641;28;20568;-66
2023/03/05 06:02:43;;;;;;;5.82;4.45;;;5.80;99.90;;;5.69;nan;100838.69;4970409;28;20765;-65
2023/03/05 06:05:13;;;;;;;12.60;6.50;;;5.80;99.90;;;5.67;nan;100840.53;4971335;28;20211;-65
2023/03/05 06:07:40;;;;;;;6.38;4.40;;;5.80;99.90;;;5.68;nan;100834.44;4950780;28;20204;-65
2023/03/05 06:10:09;;;;;;;6.80;5.00;;;5.90;99.90;;;5.67;nan;100836.19;4953836;28;20208;-64
2023/03/05 06:12:36;;;;;;;4.82;3.78;;;5.80;99.90;;;5.68;nan;100834.44;4977706;28;20235;-65
2023/03/05 06:15:03;;;;;;;6.88;4.47;;;5.80;99.90;;;5.65;nan;100834.59;4983006;28;20207;-65
2023/03/05 06:17:30;;;;;;;9.05;5.55;;;5.80;99.90;;;5.62;nan;100835.59;4978411;28;20196;-65
2023/03/05 06:19:58;;;;;;;5.00;4.07;;;5.80;99.90;;;5.61;nan;100833.91;4971094;28;20254;-66
2023/03/05 06:22:26;;;;;;;5.80;3.80;;;5.80;99.90;;;5.63;nan;100839.84;4954933;28;20697;-64
2023/03/05 06:24:53;;;;;;;5.40;2.97;;;5.80;99.90;;;5.62;nan;100833.00;4971121;28;20200;-65
2023/03/05 06:27:20;;;;;;;5.13;3.42;;;5.80;99.90;;;5.61;nan;100833.06;4971885;28;20208;-66
2023/03/05 06:29:47;;;;;;;6.15;3.25;;;5.80;99.90;;;5.65;nan;100838.03;4958719;28;20207;-64
2023/03/05 06:32:13;;;;;;;7.22;3.67;;;5.80;99.90;;;5.63;nan;100841.59;4956961;28;20211;-66
2023/03/05 06:34:40;;;;;;;0.95;0.95;;;5.80;99.90;;;5.64;nan;100840.69;4971675;28;20240;-65
2023/03/05 06:37:07;;;;;;;3.35;2.50;;;5.80;99.90;;;5.65;nan;100837.19;4959757;28;20250;-65
2023/03/05 06:39:34;;;;;;;4.45;3.20;;;5.80;99.90;;;5.66;nan;100842.31;4981393;28;20737;-65
2023/03/05 06:42:01;;;;;;;5.53;3.78;;;5.80;99.90;;;5.63;nan;100839.00;4980895;28;20236;-65
2023/03/05 06:44:28;;;;;;;4.95;2.85;;;5.80;99.90;;;5.64;nan;100836.38;4971890;28;20235;-64
2023/03/05 06:46:55;;;;;;;4.25;3.08;;;5.80;99.90;;;5.65;nan;100843.19;4971792;28;20208;-65
2023/03/05 06:49:22;;;;;;;4.75;2.75;;;5.80;99.90;;;5.63;nan;100839.84;4961833;28;20259;-66
2023/03/05 06:51:49;;;;;;;3.60;3.00;;;5.80;99.90;;;5.63;nan;100839.84;4978421;28;20206;-65
2023/03/05 06:54:16;;;;;;;6.50;4.10;;;5.80;99.90;;;5.62;nan;100842.53;4971614;28;20235;-67
2023/03/05 06:56:46;;;;;;;4.20;3.55;;;5.80;99.90;;;5.61;nan;100841.69;4984081;28;20200;-65
2023/03/05 06:59:15;;;;;;;11.82;4.00;;;5.70;99.90;;;5.64;nan;100841.53;4973960;28;20204;-65
2023/03/05 07:01:43;;;;;;;7.30;4.00;;;5.80;99.90;;;5.67;nan;100843.13;4975221;28;20269;-65
2023/03/05 07:04:12;;;;;;;8.32;4.13;;;5.80;99.90;;;5.67;nan;100838.78;4964173;28;20235;-66
2023/03/05 07:06:41;;;;;;;8.65;4.97;;;5.80;99.90;;;5.68;nan;100843.06;4977953;28;20236;-68
2023/03/05 07:09:13;;;;;;;8.48;4.82;;;5.80;99.90;;;5.68;nan;100840.47;4974439;28;20630;-65
2023/03/05 07:11:41;;;;;;;6.25;4.80;;;5.80;99.90;;;5.67;nan;100833.59;4960127;28;20282;-64
2023/03/05 07:14:08;;;;;;;5.38;4.32;;;5.80;99.90;;;5.68;nan;100832.72;4949617;28;20289;-65
2023/03/05 07:16:35;;;;;;;7.22;4.45;;;5.80;99.90;;;5.66;nan;100836.28;4966734;28;20204;-64
2023/03/05 07:19:05;;;;;;;6.38;3.92;;;5.80;99.90;;;5.68;nan;100840.47;4977105;28;20207;-66
2023/03/05 07:21:33;;;;;;;10.23;3.75;;;5.80;99.90;;;5.73;nan;100832.50;4969248;28;20695;-64
2023/03/05 07:24:04;;;;;;;4.50;3.38;;;5.80;99.90;;;5.80;nan;100836.44;4958210;28;20243;-66
2023/03/05 07:26:32;;;;;;;5.00;3.53;;;5.90;99.90;;;5.87;nan;100833.50;4974806;28;20212;-64
2023/03/05 07:29:00;;;;;;;6.30;4.35;;;6.00;99.90;;;5.95;nan;100833.97;4981221;28;20196;-66
2023/03/05 07:31:30;;;;;;;6.05;4.30;;;6.10;99.90;;;6.00;nan;100829.41;4975710;28;20204;-66
2023/03/05 07:34:00;;;;;;;3.03;2.60;;;6.10;99.90;;;6.07;nan;100828.16;4974716;28;20236;-66
2023/03/05 07:36:28;;;;;;;5.90;3.70;;;6.20;99.90;;;6.17;nan;100832.00;4959603;28;20200;-64
2023/03/05 07:38:55;;;;;;;3.85;2.72;;;6.30;99.90;;;6.25;nan;100829.00;4974445;28;20201;-66
2023/03/05 07:41:23;;;;;;;7.80;4.53;;;6.30;99.90;;;6.33;nan;100826.84;4970391;28;20294;-65
2023/03/05 07:43:54;;;;;;;4.25;2.55;;;6.40;99.90;;;6.40;nan;100828.22;4967365;28;20290;-65
2023/03/05 07:46:26;;;;;;;4.97;3.53;;;6.50;99.90;;;6.45;nan;100830.56;4956478;28;20227;-68
2023/03/05 07:48:54;;;;;;;8.82;4.50;;;6.60;99.90;;;6.55;nan;100826.56;4971647;28;20212;-65
2023/03/05 07:51:22;;;;;;;4.75;3.22;;;6.60;99.90;;;6.63;nan;100824.41;4969701;28;20219;-64
2023/03/05 07:53:51;;;;;;;7.45;4.25;;;6.70;99.90;;;6.70;nan;100837.00;4957842;28;20227;-67
2023/03/05 07:56:34;;;;;;;6.00;3.63;;;6.80;99.90;;;6.76;nan;100828.03;4993270;28;20187;-67
2023/03/05 07:59:05;;;;;;;4.30;3.17;;;6.90;99.90;;;6.80;nan;100834.72;4973437;28;20195;-66
2023/03/05 08:01:33;;;;;;;6.55;4.25;;;6.90;99.90;;;6.81;nan;100823.47;4957452;28;20197;-65
2023/03/05 08:04:01;;;;;;;8.75;4.60;;;6.90;99.90;;;6.84;nan;100833.66;4972887;28;20227;-67
2023/03/05 08:06:29;;;;;;;6.97;4.00;;;6.90;99.90;;;6.83;nan;100837.19;4976510;28;20196;-66
2023/03/05 08:08:57;;;;;;;7.65;4.05;;;7.00;99.90;;;6.87;nan;100834.34;4954983;28;20216;-66
2023/03/05 08:11:25;;;;;;;6.65;4.43;;;7.00;99.90;;;6.88;nan;100829.97;4954013;28;20699;-65
2023/03/05 08:13:52;;;;;;;9.63;3.95;;;7.00;99.90;;;6.88;nan;100825.63;4973164;28;20235;-65
2023/03/05 08:16:20;;;;;;;3.85;3.45;;;7.00;99.90;;;6.96;nan;100823.44;4969753;28;20681;-66
2023/03/05 08:18:47;;;;;;;6.70;3.47;;;7.10;99.90;;;6.98;nan;100821.63;4954806;28;20200;-66
2023/03/05 08:21:22;;;;;;;7.88;4.45;;;7.10;99.90;;;7.04;nan;100823.06;4962699;28;20220;-66
2023/03/05 08:23:49;;;;;;;9.77;5.85;;;7.20;99.90;;;7.01;nan;100818.88;4939358;28;20742;-64
2023/03/05 08:26:20;;;;;;;8.02;4.30;;;7.20;99.90;;;7.01;nan;100816.28;4970783;28;20220;-67
2023/03/05 08:28:48;;;;;;;7.75;5.15;;;7.20;99.90;;;7.05;nan;100810.00;4972364;28;20627;-65
2023/03/05 08:31:20;;;;;;;7.72;4.60;;;7.20;99.90;;;7.12;nan;100817.44;4968446;28;20281;-65
2023/03/05 08:33:49;;;;;;;7.10;4.73;;;7.20;99.90;;;7.16;nan;100814.59;4949820;28;20235;-65
2023/03/05 08:36:16;;;;;;;10.63;4.77;;;7.30;99.90;;;7.24;nan;100817.59;4965765;28;20625;-64
2023/03/05 08:38:45;;;;;;;8.20;4.30;;;7.30;99.90;;;7.30;nan;100812.09;4956258;28;20654;-64
2023/03/05 08:41:13;;;;;;;9.80;5.93;;;7.40;99.90;;;7.27;nan;100807.06;4977982;28;20215;-64
2023/03/05 08:43:40;;;;;;;11.33;4.00;;;7.40;99.90;;;7.21;nan;100804.81;4970217;28;20740;-64
2023/03/05 08:46:15;;;;;;;3.37;3.00;;;7.40;99.90;;;7.20;nan;100804.91;4968729;28;20725;-65
2023/03/05 08:48:42;;;;;;;8.20;4.40;;;7.30;99.90;;;7.17;nan;100805.06;4954286;28;20993;-66
2023/03/05 08:51:14;;;;;;;7.00;3.45;;;7.30;99.90;;;7.16;nan;100804.22;4973693;28;20693;-66
2023/03/05 08:53:43;;;;;;;8.20;3.07;;;7.30;99.90;;;7.20;nan;100804.91;4954348;28;20219;-66
2023/03/05 08:56:10;;;;;;;3.70;3.37;;;7.30;99.90;;;7.11;nan;100806.25;4969186;28;21155;-64
2023/03/05 08:58:37;;;;;;;3.97;3.30;;;7.30;99.90;;;7.05;nan;100807.41;4971735;28;20682;-65
2023/03/05 09:01:05;;;;;;;3.75;2.67;;;7.20;99.90;;;7.09;nan;100805.50;4956274;28;20657;-65
2023/03/05 09:03:32;;;;;;;2.25;2.05;;;7.20;99.90;;;7.17;nan;100805.91;4977911;28;20277;-65
2023/03/05 09:06:05;;;;;;;4.90;2.50;;;7.30;99.90;;;7.20;nan;100804.91;4954128;28;20204;-63
2023/03/05 09:08:32;;;;;;;3.55;3.00;;;7.30;99.90;;;7.26;nan;100805.38;4972608;28;20199;-65
2023/03/05 09:11:05;;;;;;;3.60;2.70;;;7.30;99.90;;;7.24;nan;100791.66;4962877;28;20232;-65
2023/03/05 09:13:32;;;;;;;3.38;2.63;;;7.30;99.90;;;7.28;nan;100798.38;4957214;28;21300;-64
2023/03/05 09:16:05;;;;;;;3.20;2.57;;;7.40;99.90;;;7.37;nan;100797.81;4966400;28;20254;-65
2023/03/05 09:18:35;;;;;;;4.03;3.03;;;7.40;99.90;;;7.43;nan;100797.47;4969839;28;20670;-65
2023/03/05 09:21:12;;;;;;;2.73;1.80;;;7.50;99.90;;;7.53;nan;100790.88;4950610;28;20632;-64
2023/03/05 09:23:40;;;;;;;2.97;2.00;;;7.60;99.90;;;7.57;nan;100794.97;4969315;28;20666;-66
2023/03/05 09:26:11;;;;;;;7.00;3.40;;;7.70;99.90;;;7.57;nan;100784.56;4969505;28;20653;-67
2023/03/05 09:28:39;;;;;;;4.70;2.73;;;7.70;99.90;;;7.55;nan;100781.22;4968469;28;20681;-65
2023/03/05 09:31:08;;;;;;;3.87;3.20;;;7.70;99.90;;;7.54;nan;100774.34;4959388;28;20650;-63
2023/03/05 09:33:36;;;;;;;3.90;2.70;;;7.70;99.90;;;7.49;nan;100781.59;4973542;28;20670;-63
2023/03/05 09:36:05;;;;;;;3.10;2.77;;;7.60;99.90;;;7.44;nan;100775.81;4953264;28;20635;-66
2023/03/05 09:38:32;;;;;;;2.35;1.52;;;7.60;99.90;;;7.40;nan;100776.91;4957801;28;20637;-65
2023/03/05 09:41:22;;;;;;;2.00;0.88;;;7.50;99.90;;;7.35;nan;100784.09;4962475;28;20207;-66
2023/03/05 09:44:10;;;;;;;3.80;2.10;;;7.50;99.90;;;7.40;nan;100778.66;4965421;28;20246;-66
2023/03/05 09:47:23;;;;;;;2.70;1.63;;;7.50;99.90;;;7.46;nan;100776.56;4975297;28;20639;-67
2023/03/05 09:50:16;;;;;;;4.10;2.23;;;7.60;99.90;;;7.55;nan;100780.38;4938679;28;20202;-68
2023/03/05 09:52:53;;;;;;;4.97;2.80;;;7.60;99.90;;;7.59;nan;100774.94;4944640;28;20667;-65
2023/03/05 09:55:35;;;;;;;3.20;2.60;;;7.70;99.90;;;7.60;nan;100766.19;4945197;28;20241;-66
2023/03/05 09:58:29;;;;;;;2.77;2.03;;;7.70;99.90;;;7.67;nan;100764.94;4945812;28;20626;-65
2023/03/05 10:01:13;;;;;;;3.67;2.50;;;7.80;99.90;;;7.77;nan;100760.88;4970400;28;20631;-67
2023/03/05 10:04:11;;;;;;;3.60;1.90;;;7.90;99.90;;;7.86;nan;100754.31;4972650;28;20738;-64
2023/03/05 10:07:03;;;;;;;5.23;2.17;;;7.90;99.90;;;7.94;nan;100751.28;4945665;28;21233;-65
2023/03/05 10:10:09;;;;;;;4.73;2.80;;;8.00;99.90;;;7.92;nan;100742.72;4949003;28;20620;-65
2023/03/05 10:12:41;;;;;;;4.57;2.23;;;8.00;99.90;;;7.94;nan;100740.88;4981918;28;20767;-67
2023/03/05 10:15:26;;;;;;;3.10;2.50;;;8.00;99.90;;;7.99;nan;100744.88;4950588;28;20667;-68
2023/03/05 10:18:34;;;;;;;2.50;2.30;;;8.10;99.90;;;8.10;nan;100739.03;4965951;28;20639;-69
2023/03/05 10:21:15;;;;;;;3.13;2.40;;;8.10;99.90;;;8.16;nan;100736.88;4899132;29;20726;-68
2023/03/05 10:24:20;;;;;;;1.70;1.57;;;8.20;99.90;;;8.18;nan;100723.78;4899609;29;20669;-68
2023/03/05 10:27:06;;;;;;;4.50;2.47;;;8.30;99.90;;;8.17;nan;100727.34;4926375;28;20643;-68
2023/03/05 10:30:00;;;;;;;2.13;1.97;;;8.30;99.90;;;8.20;nan;100721.97;4961503;28;20638;-70
2023/03/05 10:32:44;;;;;;;22.20;10.33;;;8.30;99.90;;;8.27;nan;100725.88;4970093;28;20631;-68
2023/03/05 10:35:39;;;;;;;2.87;2.20;;;8.30;99.90;;;8.19;nan;100708.13;4953665;28;20663;-64
2023/03/05 10:38:15;;;;;;;1.93;1.40;;;8.30;99.90;;;8.17;nan;100714.34;4966466;28;21238;-69
2023/03/05 10:40:50;;;;;;;2.90;2.07;;;8.20;99.90;;;8.17;nan;100711.75;4966262;28;21171;-67
2023/03/05 10:43:31;;;;;;;3.13;2.40;;;8.20;99.90;;;8.08;nan;100713.13;4978078;23;20705;-68
2023/03/05 10:46:01;;;;;;;3.33;2.30;;;8.20;99.90;;;8.07;nan;100711.44;5005179;28;20648;-64
2023/03/05 10:48:52;;;;;;;3.00;2.33;;;8.20;99.90;;;8.07;nan;100702.84;4999521;28;20638;-66
2023/03/05 10:51:27;;;;;;;2.58;2.08;;;8.20;99.90;;;8.05;nan;100697.72;5004924;28;20751;-64
2023/03/05 10:53:58;;;;;;;5.33;2.63;;;8.10;99.90;;;8.03;nan;100701.38;5001681;28;20231;-64